Impacts TAF Board INFO
FOR SITUATIONAL AWARENESS. NOT TO BE USED FOR FLIGHT PLANNING PURPOSES.
IDs:

KCLT - Charlotte/Douglas In, NC, US

Issued at 2336 UTC 16 Aug 2018
Updated at 0524 UTC 17 Aug 2018
Potential Impact None Slight Moderate High
Time0452Z 17/06Z 17/07Z 17/08Z 17/09Z 17/10Z 17/11Z 17/12Z 17/13Z 17/14Z 17/15Z 17/16Z 17/17Z 17/18Z>>
Type OBS PRVL PRVL PRVL PRVL PRVL PRVL PRVL PRVL PRVL PRVL PRVL PRVL PRVL
VIS 9 >6 >6 >6 >6 >6 >6 >6 >6 >6 >6 >6 >6 >6
CIG -- -- -- -- -- -- -- -- -- -- -- -- -- --
Cover FEW SCT SCT SCT SCT SCT SCT SCT SCT SCT SCT SCT SCT SCT
FltCat VFR VFR VFR VFR VFR VFR VFR VFR VFR VFR VFR VFR VFR VFR
WX -- -- -- -- -- -- -- -- -- -- -- -- -- --
WDir 210 190 190 190 190 190 190 190 190 230 230 230 230 230
WSpd 4 4 4 4 4 4 4 4 4 8 8 8 8 8
WGst -- -- -- -- -- -- -- -- -- -- -- -- -- --

Raw TAF
KCLT 162336Z 1700/1806 19004KT P6SM FEW050 SCT250
  FM171400 23008KT P6SM SCT200
  FM172000 22010G18KT P6SM SCT050 BKN140
  PROB30 1720/1724 4SM -TSRA OVC025CB
  FM180000 22006KT P6SM SCT050 BKN250
  PROB30 1800/1804 4SM -TSRA BKN050CB BKN120


Raw METAR
KCLT 170452Z 21004KT 9SM FEW250 25/22 A3017 RMK AO2 SLP207 T02500222 403330211
KCLT 170352Z 20004KT 9SM FEW250 26/23 A3017 RMK AO2 SLP206 T02560228
KCLT 170252Z 19006KT 9SM FEW250 26/23 A3017 RMK AO2 SLP205 T02610233 53009

METAR Board
Radar Display
Forecast Discussion

FOR SITUATIONAL AWARENESS. NOT TO BE USED FOR FLIGHT PLANNING PURPOSES.